sensor_id;sensor_type;location;lat;lon;timestamp;temperature;humidity
40964;DHT22;26693;51.168;4.138;2022-10-23T00:00:53;16.10;99.90
40964;DHT22;26693;51.168;4.138;2022-10-23T00:01:53;16.00;99.90
40964;DHT22;26693;51.168;4.138;2022-10-23T00:02:54;16.00;99.90
40964;DHT22;26693;51.168;4.138;2022-10-23T00:03:57;16.00;99.90
40964;DHT22;26693;51.168;4.138;2022-10-23T00:04:57;16.00;99.90
40964;DHT22;26693;51.168;4.138;2022-10-23T00:05:58;16.10;99.90
40964;DHT22;26693;51.168;4.138;2022-10-23T00:06:58;16.10;99.90
40964;DHT22;26693;51.168;4.138;2022-10-23T00:07:59;16.00;99.90
40964;DHT22;26693;51.168;4.138;2022-10-23T00:09:00;16.00;99.90
40964;DHT22;26693;51.168;4.138;2022-10-23T00:10:01;16.00;99.90
40964;DHT22;26693;51.168;4.138;2022-10-23T00:11:07;15.90;99.90
40964;DHT22;26693;51.168;4.138;2022-10-23T00:12:08;15.90;99.90
40964;DHT22;26693;51.168;4.138;2022-10-23T00:13:09;15.90;99.90
40964;DHT22;26693;51.168;4.138;2022-10-23T00:14:10;16.00;99.90
40964;DHT22;26693;51.168;4.138;2022-10-23T00:15:10;16.00;99.90
40964;DHT22;26693;51.168;4.138;2022-10-23T00:16:12;16.10;99.90
40964;DHT22;26693;51.168;4.138;2022-10-23T00:17:13;16.20;99.90
40964;DHT22;26693;51.168;4.138;2022-10-23T00:18:13;16.20;99.90
40964;DHT22;26693;51.168;4.138;2022-10-23T00:19:14;16.20;99.90
40964;DHT22;26693;51.168;4.138;2022-10-23T00:20:15;16.10;99.90
40964;DHT22;26693;51.168;4.138;2022-10-23T00:21:17;16.00;99.90
40964;DHT22;26693;51.168;4.138;2022-10-23T00:22:17;15.90;99.90
40964;DHT22;26693;51.168;4.138;2022-10-23T00:23:18;15.90;99.90
40964;DHT22;26693;51.168;4.138;2022-10-23T00:24:18;15.90;99.90
40964;DHT22;26693;51.168;4.138;2022-10-23T00:25:19;15.80;99.90
40964;DHT22;26693;51.168;4.138;2022-10-23T00:26:20;15.80;99.90
40964;DHT22;26693;51.168;4.138;2022-10-23T00:27:20;15.80;99.90
40964;DHT22;26693;51.168;4.138;2022-10-23T00:28:21;15.80;99.90
40964;DHT22;26693;51.168;4.138;2022-10-23T00:29:21;15.80;99.90
40964;DHT22;26693;51.168;4.138;2022-10-23T00:30:22;15.80;99.90
40964;DHT22;26693;51.168;4.138;2022-10-23T00:31:23;15.80;99.90
40964;DHT22;26693;51.168;4.138;2022-10-23T00:32:24;15.90;99.90
40964;DHT22;26693;51.168;4.138;2022-10-23T00:33:26;15.90;99.90
40964;DHT22;26693;51.168;4.138;2022-10-23T00:34:26;15.90;99.90
40964;DHT22;26693;51.168;4.138;2022-10-23T00:35:27;15.90;99.90
40964;DHT22;26693;51.168;4.138;2022-10-23T00:36:27;15.90;99.90
40964;DHT22;26693;51.168;4.138;2022-10-23T00:37:28;15.90;99.90
40964;DHT22;26693;51.168;4.138;2022-10-23T00:38:28;16.00;99.90
40964;DHT22;26693;51.168;4.138;2022-10-23T00:39:29;16.00;99.90
40964;DHT22;26693;51.168;4.138;2022-10-23T00:40:29;16.00;99.90
40964;DHT22;26693;51.168;4.138;2022-10-23T00:41:30;16.00;99.90
40964;DHT22;26693;51.168;4.138;2022-10-23T00:42:32;16.00;99.90
40964;DHT22;26693;51.168;4.138;2022-10-23T00:43:33;16.00;99.90
40964;DHT22;26693;51.168;4.138;2022-10-23T00:45:34;16.00;99.90
40964;DHT22;26693;51.168;4.138;2022-10-23T00:46:36;16.00;99.90
40964;DHT22;26693;51.168;4.138;2022-10-23T00:47:37;16.00;99.90
40964;DHT22;26693;51.168;4.138;2022-10-23T00:48:38;15.90;99.90
40964;DHT22;26693;51.168;4.138;2022-10-23T00:49:38;15.90;99.90
40964;DHT22;26693;51.168;4.138;2022-10-23T00:50:40;15.90;99.90
40964;DHT22;26693;51.168;4.138;2022-10-23T00:51:47;15.90;99.90
40964;DHT22;26693;51.168;4.138;2022-10-23T00:52:50;15.90;99.90
40964;DHT22;26693;51.168;4.138;2022-10-23T00:53:57;15.90;99.90
40964;DHT22;26693;51.168;4.138;2022-10-23T00:54:58;15.90;99.90
40964;DHT22;26693;51.168;4.138;2022-10-23T00:55:59;15.90;99.90
40964;DHT22;26693;51.168;4.138;2022-10-23T00:57:02;16.00;99.90
40964;DHT22;26693;51.168;4.138;2022-10-23T00:58:04;16.00;99.90
40964;DHT22;26693;51.168;4.138;2022-10-23T00:59:04;16.00;99.90
40964;DHT22;26693;51.168;4.138;2022-10-23T01:00:05;16.00;99.90
40964;DHT22;26693;51.168;4.138;2022-10-23T01:01:16;16.00;99.90
40964;DHT22;26693;51.168;4.138;2022-10-23T01:02:17;16.00;99.90
40964;DHT22;26693;51.168;4.138;2022-10-23T01:03:19;16.00;99.90
40964;DHT22;26693;51.168;4.138;2022-10-23T01:04:21;15.90;99.90
40964;DHT22;26693;51.168;4.138;2022-10-23T01:05:30;16.00;99.90
40964;DHT22;26693;51.168;4.138;2022-10-23T01:06:49;16.10;99.90
40964;DHT22;26693;51.168;4.138;2022-10-23T01:07:56;16.10;99.90
40964;DHT22;26693;51.168;4.138;2022-10-23T01:10:30;16.10;99.90
40964;DHT22;26693;51.168;4.138;2022-10-23T01:11:52;16.10;99.90
40964;DHT22;26693;51.168;4.138;2022-10-23T01:13:10;15.90;99.90
40964;DHT22;26693;51.168;4.138;2022-10-23T01:18:14;16.00;99.90
40964;DHT22;26693;51.168;4.138;2022-10-23T01:19:41;16.00;99.90
40964;DHT22;26693;51.168;4.138;2022-10-23T01:20:54;16.00;99.90
40964;DHT22;26693;51.168;4.138;2022-10-23T01:22:31;16.00;99.90
40964;DHT22;26693;51.168;4.138;2022-10-23T01:25:11;16.10;99.90
40964;DHT22;26693;51.168;4.138;2022-10-23T01:26:23;16.10;99.90
40964;DHT22;26693;51.168;4.138;2022-10-23T01:29:35;16.10;99.90
40964;DHT22;26693;51.168;4.138;2022-10-23T01:30:40;16.00;99.90
40964;DHT22;26693;51.168;4.138;2022-10-23T01:31:47;16.10;99.90
40964;DHT22;26693;51.168;4.138;2022-10-23T01:32:52;16.10;99.90
40964;DHT22;26693;51.168;4.138;2022-10-23T01:33:59;16.10;99.90
40964;DHT22;26693;51.168;4.138;2022-10-23T01:35:15;16.10;99.90
40964;DHT22;26693;51.168;4.138;2022-10-23T01:36:19;16.10;99.90
40964;DHT22;26693;51.168;4.138;2022-10-23T01:37:28;16.10;99.90
40964;DHT22;26693;51.168;4.138;2022-10-23T01:38:43;16.00;99.90
40964;DHT22;26693;51.168;4.138;2022-10-23T01:39:48;16.00;99.90
40964;DHT22;26693;51.168;4.138;2022-10-23T01:41:02;16.00;99.90
40964;DHT22;26693;51.168;4.138;2022-10-23T01:42:10;16.00;99.90
40964;DHT22;26693;51.168;4.138;2022-10-23T01:43:18;16.00;99.90
40964;DHT22;26693;51.168;4.138;2022-10-23T01:45:39;16.00;99.90
40964;DHT22;26693;51.168;4.138;2022-10-23T01:46:42;16.00;99.90
40964;DHT22;26693;51.168;4.138;2022-10-23T01:47:44;16.00;99.90
40964;DHT22;26693;51.168;4.138;2022-10-23T01:48:52;15.90;99.90
40964;DHT22;26693;51.168;4.138;2022-10-23T01:49:54;15.90;99.90
40964;DHT22;26693;51.168;4.138;2022-10-23T01:50:59;15.90;99.90
40964;DHT22;26693;51.168;4.138;2022-10-23T01:52:02;15.90;99.90
40964;DHT22;26693;51.168;4.138;2022-10-23T01:53:05;15.80;99.90
40964;DHT22;26693;51.168;4.138;2022-10-23T01:54:08;15.80;99.90
40964;DHT22;26693;51.168;4.138;2022-10-23T01:55:10;15.80;99.90
40964;DHT22;26693;51.168;4.138;2022-10-23T01:56:16;15.80;99.90
40964;DHT22;26693;51.168;4.138;2022-10-23T01:57:19;15.80;99.90
40964;DHT22;26693;51.168;4.138;2022-10-23T01:58:22;15.80;99.90
40964;DHT22;26693;51.168;4.138;2022-10-23T01:59:31;15.70;99.90
40964;DHT22;26693;51.168;4.138;2022-10-23T02:00:38;15.70;99.90
40964;DHT22;26693;51.168;4.138;2022-10-23T02:01:40;15.80;99.90
40964;DHT22;26693;51.168;4.138;2022-10-23T02:02:42;15.70;99.90
40964;DHT22;26693;51.168;4.138;2022-10-23T02:03:44;15.70;99.90
40964;DHT22;26693;51.168;4.138;2022-10-23T02:04:57;15.70;99.90
40964;DHT22;26693;51.168;4.138;2022-10-23T02:05:59;15.80;99.90
40964;DHT22;26693;51.168;4.138;2022-10-23T02:07:00;15.80;99.90
40964;DHT22;26693;51.168;4.138;2022-10-23T02:08:01;15.90;99.90
40964;DHT22;26693;51.168;4.138;2022-10-23T02:09:03;15.80;99.90
40964;DHT22;26693;51.168;4.138;2022-10-23T02:10:05;15.80;99.90
40964;DHT22;26693;51.168;4.138;2022-10-23T02:11:09;15.80;99.90
40964;DHT22;26693;51.168;4.138;2022-10-23T02:12:23;15.80;99.90
40964;DHT22;26693;51.168;4.138;2022-10-23T02:14:45;15.80;99.90
40964;DHT22;26693;51.168;4.138;2022-10-23T02:16:18;15.70;99.90
40964;DHT22;26693;51.168;4.138;2022-10-23T02:17:29;15.60;99.90
40964;DHT22;26693;51.168;4.138;2022-10-23T02:18:55;15.50;99.90
40964;DHT22;26693;51.168;4.138;2022-10-23T02:20:16;15.60;99.90
40964;DHT22;26693;51.168;4.138;2022-10-23T02:22:51;15.50;99.90
40964;DHT22;26693;51.168;4.138;2022-10-23T02:23:58;15.50;99.90
40964;DHT22;26693;51.168;4.138;2022-10-23T02:25:08;15.60;99.90
40964;DHT22;26693;51.168;4.138;2022-10-23T02:27:44;15.50;99.90
40964;DHT22;26693;51.168;4.138;2022-10-23T02:28:50;15.40;99.90
40964;DHT22;26693;51.168;4.138;2022-10-23T02:29:55;15.40;99.90
40964;DHT22;26693;51.168;4.138;2022-10-23T02:30:58;15.50;99.90
40964;DHT22;26693;51.168;4.138;2022-10-23T02:32:00;15.50;99.90
40964;DHT22;26693;51.168;4.138;2022-10-23T02:33:01;15.50;99.90
40964;DHT22;26693;51.168;4.138;2022-10-23T02:34:02;15.40;99.90
40964;DHT22;26693;51.168;4.138;2022-10-23T02:35:03;15.40;99.90
40964;DHT22;26693;51.168;4.138;2022-10-23T02:36:04;15.40;99.90
40964;DHT22;26693;51.168;4.138;2022-10-23T02:37:05;15.40;99.90
40964;DHT22;26693;51.168;4.138;2022-10-23T02:38:27;15.40;99.90
40964;DHT22;26693;51.168;4.138;2022-10-23T02:39:28;15.50;99.90
40964;DHT22;26693;51.168;4.138;2022-10-23T02:40:39;15.50;99.90
40964;DHT22;26693;51.168;4.138;2022-10-23T02:42:47;15.60;99.90
40964;DHT22;26693;51.168;4.138;2022-10-23T02:45:13;15.60;99.90
40964;DHT22;26693;51.168;4.138;2022-10-23T02:46:24;15.60;99.90
40964;DHT22;26693;51.168;4.138;2022-10-23T02:49:16;15.60;99.90
40964;DHT22;26693;51.168;4.138;2022-10-23T02:51:56;15.60;99.90
40964;DHT22;26693;51.168;4.138;2022-10-23T02:54:35;15.60;99.90
40964;DHT22;26693;51.168;4.138;2022-10-23T02:55:49;15.60;99.90
40964;DHT22;26693;51.168;4.138;2022-10-23T02:57:02;15.60;99.90
40964;DHT22;26693;51.168;4.138;2022-10-23T02:59:44;15.60;99.90
40964;DHT22;26693;51.168;4.138;2022-10-23T03:01:03;15.60;99.90
40964;DHT22;26693;51.168;4.138;2022-10-23T03:02:23;15.50;99.90
40964;DHT22;26693;51.168;4.138;2022-10-23T03:03:35;15.50;99.90
40964;DHT22;26693;51.168;4.138;2022-10-23T03:04:39;15.50;99.90
40964;DHT22;26693;51.168;4.138;2022-10-23T03:05:41;15.50;99.90
40964;DHT22;26693;51.168;4.138;2022-10-23T03:06:44;15.60;99.90
40964;DHT22;26693;51.168;4.138;2022-10-23T03:07:45;15.50;99.90
40964;DHT22;26693;51.168;4.138;2022-10-23T03:08:59;15.50;99.90
40964;DHT22;26693;51.168;4.138;2022-10-23T03:10:01;15.50;99.90
40964;DHT22;26693;51.168;4.138;2022-10-23T03:11:01;15.50;99.90
40964;DHT22;26693;51.168;4.138;2022-10-23T03:12:02;15.50;99.90
40964;DHT22;26693;51.168;4.138;2022-10-23T03:13:03;15.60;99.90
40964;DHT22;26693;51.168;4.138;2022-10-23T03:14:03;15.60;99.90
40964;DHT22;26693;51.168;4.138;2022-10-23T03:15:05;15.60;99.90
40964;DHT22;26693;51.168;4.138;2022-10-23T03:16:06;15.60;99.90
40964;DHT22;26693;51.168;4.138;2022-10-23T03:17:07;15.60;99.90
40964;DHT22;26693;51.168;4.138;2022-10-23T03:18:07;15.70;99.90
40964;DHT22;26693;51.168;4.138;2022-10-23T03:19:08;15.70;99.90
40964;DHT22;26693;51.168;4.138;2022-10-23T03:20:10;15.70;99.90
40964;DHT22;26693;51.168;4.138;2022-10-23T03:21:11;15.70;99.90
40964;DHT22;26693;51.168;4.138;2022-10-23T03:22:11;15.70;99.90
40964;DHT22;26693;51.168;4.138;2022-10-23T03:23:12;15.70;99.90
40964;DHT22;26693;51.168;4.138;2022-10-23T03:24:13;15.80;99.90
40964;DHT22;26693;51.168;4.138;2022-10-23T03:25:13;15.80;99.90
40964;DHT22;26693;51.168;4.138;2022-10-23T03:26:14;15.90;99.90
40964;DHT22;26693;51.168;4.138;2022-10-23T03:27:15;15.90;99.90
40964;DHT22;26693;51.168;4.138;2022-10-23T03:28:15;15.90;99.90
40964;DHT22;26693;51.168;4.138;2022-10-23T03:29:16;15.90;99.90
40964;DHT22;26693;51.168;4.138;2022-10-23T03:30:17;15.80;99.90
40964;DHT22;26693;51.168;4.138;2022-10-23T03:31:17;15.80;99.90
40964;DHT22;26693;51.168;4.138;2022-10-23T03:32:18;15.70;99.90
40964;DHT22;26693;51.168;4.138;2022-10-23T03:33:18;15.70;99.90
40964;DHT22;26693;51.168;4.138;2022-10-23T03:34:19;15.60;99.90
40964;DHT22;26693;51.168;4.138;2022-10-23T03:35:19;15.60;99.90
40964;DHT22;26693;51.168;4.138;2022-10-23T03:36:20;15.60;99.90
40964;DHT22;26693;51.168;4.138;2022-10-23T03:37:21;15.60;99.90
40964;DHT22;26693;51.168;4.138;2022-10-23T03:38:21;15.60;99.90
40964;DHT22;26693;51.168;4.138;2022-10-23T03:39:22;15.60;99.90
40964;DHT22;26693;51.168;4.138;2022-10-23T03:40:22;15.60;99.90
40964;DHT22;26693;51.168;4.138;2022-10-23T03:41:23;15.60;99.90
40964;DHT22;26693;51.168;4.138;2022-10-23T03:42:23;15.70;99.90
40964;DHT22;26693;51.168;4.138;2022-10-23T03:43:24;15.80;99.90
40964;DHT22;26693;51.168;4.138;2022-10-23T03:44:25;15.70;99.90
40964;DHT22;26693;51.168;4.138;2022-10-23T03:45:25;15.70;99.90
40964;DHT22;26693;51.168;4.138;2022-10-23T03:46:26;15.70;99.90
40964;DHT22;26693;51.168;4.138;2022-10-23T03:47:26;15.70;99.90
40964;DHT22;26693;51.168;4.138;2022-10-23T03:48:29;15.80;99.90
40964;DHT22;26693;51.168;4.138;2022-10-23T03:49:31;15.80;99.90
40964;DHT22;26693;51.168;4.138;2022-10-23T03:50:32;15.80;99.90
40964;DHT22;26693;51.168;4.138;2022-10-23T03:51:33;15.80;99.90
40964;DHT22;26693;51.168;4.138;2022-10-23T03:52:34;15.80;99.90
40964;DHT22;26693;51.168;4.138;2022-10-23T03:53:34;15.70;99.90
40964;DHT22;26693;51.168;4.138;2022-10-23T03:54:35;15.70;99.90
40964;DHT22;26693;51.168;4.138;2022-10-23T03:55:35;15.70;99.90
40964;DHT22;26693;51.168;4.138;2022-10-23T03:56:36;15.60;99.90
40964;DHT22;26693;51.168;4.138;2022-10-23T03:57:37;15.70;99.90
40964;DHT22;26693;51.168;4.138;2022-10-23T03:58:37;15.60;99.90
40964;DHT22;26693;51.168;4.138;2022-10-23T03:59:38;15.60;99.90
40964;DHT22;26693;51.168;4.138;2022-10-23T04:00:38;15.50;99.90
40964;DHT22;26693;51.168;4.138;2022-10-23T04:01:39;15.50;99.90
40964;DHT22;26693;51.168;4.138;2022-10-23T04:02:39;15.40;99.90
40964;DHT22;26693;51.168;4.138;2022-10-23T04:03:40;15.30;99.90
40964;DHT22;26693;51.168;4.138;2022-10-23T04:04:40;15.30;99.90
40964;DHT22;26693;51.168;4.138;2022-10-23T04:05:41;15.30;99.90
40964;DHT22;26693;51.168;4.138;2022-10-23T04:06:42;15.30;99.90
40964;DHT22;26693;51.168;4.138;2022-10-23T04:07:43;15.30;99.90
40964;DHT22;26693;51.168;4.138;2022-10-23T04:08:44;15.30;99.90
40964;DHT22;26693;51.168;4.138;2022-10-23T04:09:44;15.30;99.90
40964;DHT22;26693;51.168;4.138;2022-10-23T04:10:45;15.40;99.90
40964;DHT22;26693;51.168;4.138;2022-10-23T04:11:45;15.40;99.90
40964;DHT22;26693;51.168;4.138;2022-10-23T04:12:46;15.40;99.90
40964;DHT22;26693;51.168;4.138;2022-10-23T04:13:46;15.40;99.90
40964;DHT22;26693;51.168;4.138;2022-10-23T04:14:47;15.50;99.90
40964;DHT22;26693;51.168;4.138;2022-10-23T04:15:48;15.50;99.90
40964;DHT22;26693;51.168;4.138;2022-10-23T04:16:49;15.50;99.90
40964;DHT22;26693;51.168;4.138;2022-10-23T04:17:49;15.50;99.90
40964;DHT22;26693;51.168;4.138;2022-10-23T04:18:50;15.50;99.90
40964;DHT22;26693;51.168;4.138;2022-10-23T04:19:51;15.40;99.90
40964;DHT22;26693;51.168;4.138;2022-10-23T04:20:51;15.40;99.90
40964;DHT22;26693;51.168;4.138;2022-10-23T04:21:52;15.30;99.90
40964;DHT22;26693;51.168;4.138;2022-10-23T04:22:52;15.20;99.90
40964;DHT22;26693;51.168;4.138;2022-10-23T04:23:53;15.20;99.90
40964;DHT22;26693;51.168;4.138;2022-10-23T04:24:53;15.20;99.90
40964;DHT22;26693;51.168;4.138;2022-10-23T04:25:57;15.20;99.90
40964;DHT22;26693;51.168;4.138;2022-10-23T04:26:58;15.20;99.90
40964;DHT22;26693;51.168;4.138;2022-10-23T04:27:58;15.20;99.90
40964;DHT22;26693;51.168;4.138;2022-10-23T04:28:59;15.30;99.90
40964;DHT22;26693;51.168;4.138;2022-10-23T04:30:00;15.30;99.90
40964;DHT22;26693;51.168;4.138;2022-10-23T04:31:00;15.30;99.90
40964;DHT22;26693;51.168;4.138;2022-10-23T04:32:01;15.40;99.90
40964;DHT22;26693;51.168;4.138;2022-10-23T04:33:01;15.40;99.90
40964;DHT22;26693;51.168;4.138;2022-10-23T04:34:02;15.30;99.90
40964;DHT22;26693;51.168;4.138;2022-10-23T04:35:03;15.40;99.90
40964;DHT22;26693;51.168;4.138;2022-10-23T04:36:03;15.40;99.90
40964;DHT22;26693;51.168;4.138;2022-10-23T04:37:04;15.40;99.90
40964;DHT22;26693;51.168;4.138;2022-10-23T04:38:04;15.40;99.90
40964;DHT22;26693;51.168;4.138;2022-10-23T04:39:05;15.40;99.90
40964;DHT22;26693;51.168;4.138;2022-10-23T04:40:06;15.40;99.90
40964;DHT22;26693;51.168;4.138;2022-10-23T04:41:07;15.40;99.90
40964;DHT22;26693;51.168;4.138;2022-10-23T04:42:08;15.30;99.90
40964;DHT22;26693;51.168;4.138;2022-10-23T04:43:08;15.30;99.90
40964;DHT22;26693;51.168;4.138;2022-10-23T04:44:09;15.30;99.90
40964;DHT22;26693;51.168;4.138;2022-10-23T04:45:09;15.40;99.90
40964;DHT22;26693;51.168;4.138;2022-10-23T04:46:10;15.40;99.90
40964;DHT22;26693;51.168;4.138;2022-10-23T04:47:10;15.30;99.90
40964;DHT22;26693;51.168;4.138;2022-10-23T04:48:11;15.30;99.90
40964;DHT22;26693;51.168;4.138;2022-10-23T04:49:11;15.30;99.90
40964;DHT22;26693;51.168;4.138;2022-10-23T04:50:12;15.30;99.90
40964;DHT22;26693;51.168;4.138;2022-10-23T04:51:13;15.30;99.90
40964;DHT22;26693;51.168;4.138;2022-10-23T04:52:13;15.40;99.90
40964;DHT22;26693;51.168;4.138;2022-10-23T04:53:14;15.40;99.90
40964;DHT22;26693;51.168;4.138;2022-10-23T04:54:14;15.30;99.90
40964;DHT22;26693;51.168;4.138;2022-10-23T04:55:15;15.30;99.90
40964;DHT22;26693;51.168;4.138;2022-10-23T04:56:16;15.30;99.90
40964;DHT22;26693;51.168;4.138;2022-10-23T04:57:16;15.30;99.90
40964;DHT22;26693;51.168;4.138;2022-10-23T04:58:17;15.30;99.90
40964;DHT22;26693;51.168;4.138;2022-10-23T04:59:18;15.30;99.90
40964;DHT22;26693;51.168;4.138;2022-10-23T05:00:19;15.30;99.90
40964;DHT22;26693;51.168;4.138;2022-10-23T05:01:20;15.30;99.90
40964;DHT22;26693;51.168;4.138;2022-10-23T05:02:20;15.30;99.90
40964;DHT22;26693;51.168;4.138;2022-10-23T05:03:21;15.30;99.90
40964;DHT22;26693;51.168;4.138;2022-10-23T05:04:22;15.30;99.90
40964;DHT22;26693;51.168;4.138;2022-10-23T05:05:23;15.30;99.90
40964;DHT22;26693;51.168;4.138;2022-10-23T05:06:23;15.30;99.90
40964;DHT22;26693;51.168;4.138;2022-10-23T05:07:24;15.40;99.90
40964;DHT22;26693;51.168;4.138;2022-10-23T05:08:24;15.40;99.90
40964;DHT22;26693;51.168;4.138;2022-10-23T05:09:25;15.50;99.90
40964;DHT22;26693;51.168;4.138;2022-10-23T05:10:26;15.50;99.90
40964;DHT22;26693;51.168;4.138;2022-10-23T05:11:26;15.50;99.90
40964;DHT22;26693;51.168;4.138;2022-10-23T05:12:27;15.50;99.90
40964;DHT22;26693;51.168;4.138;2022-10-23T05:13:27;15.50;99.90
40964;DHT22;26693;51.168;4.138;2022-10-23T05:14:28;15.50;99.90
40964;DHT22;26693;51.168;4.138;2022-10-23T05:15:28;15.50;99.90
40964;DHT22;26693;51.168;4.138;2022-10-23T05:16:36;15.40;99.90
40964;DHT22;26693;51.168;4.138;2022-10-23T05:17:40;15.50;99.90
40964;DHT22;26693;51.168;4.138;2022-10-23T05:18:45;15.50;99.90
40964;DHT22;26693;51.168;4.138;2022-10-23T05:19:51;15.40;99.90
40964;DHT22;26693;51.168;4.138;2022-10-23T05:21:10;15.50;99.90
40964;DHT22;26693;51.168;4.138;2022-10-23T05:22:12;15.50;99.90
40964;DHT22;26693;51.168;4.138;2022-10-23T05:23:15;15.50;99.90
40964;DHT22;26693;51.168;4.138;2022-10-23T05:24:17;15.40;99.90
40964;DHT22;26693;51.168;4.138;2022-10-23T05:25:18;15.50;99.90
40964;DHT22;26693;51.168;4.138;2022-10-23T05:26:18;15.40;99.90
40964;DHT22;26693;51.168;4.138;2022-10-23T05:27:19;15.50;99.90
40964;DHT22;26693;51.168;4.138;2022-10-23T05:28:19;15.50;99.90
40964;DHT22;26693;51.168;4.138;2022-10-23T05:29:20;15.50;99.90
40964;DHT22;26693;51.168;4.138;2022-10-23T05:30:21;15.40;99.90
40964;DHT22;26693;51.168;4.138;2022-10-23T05:31:23;15.40;99.90
40964;DHT22;26693;51.168;4.138;2022-10-23T05:32:26;15.40;99.90
40964;DHT22;26693;51.168;4.138;2022-10-23T05:33:29;15.40;99.90
40964;DHT22;26693;51.168;4.138;2022-10-23T05:34:31;15.40;99.90
40964;DHT22;26693;51.168;4.138;2022-10-23T05:35:32;15.30;99.90
40964;DHT22;26693;51.168;4.138;2022-10-23T05:36:33;15.30;99.90
40964;DHT22;26693;51.168;4.138;2022-10-23T05:37:35;15.40;99.90
40964;DHT22;26693;51.168;4.138;2022-10-23T05:38:36;15.30;99.90
40964;DHT22;26693;51.168;4.138;2022-10-23T05:39:37;15.40;99.90
40964;DHT22;26693;51.168;4.138;2022-10-23T05:40:37;15.40;99.90
40964;DHT22;26693;51.168;4.138;2022-10-23T05:41:38;15.30;99.90
40964;DHT22;26693;51.168;4.138;2022-10-23T05:42:38;15.40;99.90
40964;DHT22;26693;51.168;4.138;2022-10-23T05:43:39;15.40;99.90
40964;DHT22;26693;51.168;4.138;2022-10-23T05:44:40;15.40;99.90
40964;DHT22;26693;51.168;4.138;2022-10-23T05:45:40;15.40;99.90
40964;DHT22;26693;51.168;4.138;2022-10-23T05:46:41;15.40;99.90
40964;DHT22;26693;51.168;4.138;2022-10-23T05:47:45;15.40;99.90
40964;DHT22;26693;51.168;4.138;2022-10-23T05:48:49;15.40;99.90
40964;DHT22;26693;51.168;4.138;2022-10-23T05:49:50;15.40;99.90
40964;DHT22;26693;51.168;4.138;2022-10-23T05:50:51;15.40;99.90
40964;DHT22;26693;51.168;4.138;2022-10-23T05:51:51;15.40;99.90
40964;DHT22;26693;51.168;4.138;2022-10-23T05:52:52;15.40;99.90
40964;DHT22;26693;51.168;4.138;2022-10-23T05:53:53;15.40;99.90
40964;DHT22;26693;51.168;4.138;2022-10-23T05:54:54;15.40;99.90
40964;DHT22;26693;51.168;4.138;2022-10-23T05:55:54;15.40;99.90
40964;DHT22;26693;51.168;4.138;2022-10-23T05:56:55;15.40;99.90
40964;DHT22;26693;51.168;4.138;2022-10-23T05:57:56;15.40;99.90
40964;DHT22;26693;51.168;4.138;2022-10-23T05:58:56;15.40;99.90
40964;DHT22;26693;51.168;4.138;2022-10-23T05:59:57;15.40;99.90
40964;DHT22;26693;51.168;4.138;2022-10-23T06:00:57;15.40;99.90
40964;DHT22;26693;51.168;4.138;2022-10-23T06:01:58;15.30;99.90
40964;DHT22;26693;51.168;4.138;2022-10-23T06:03:00;15.30;99.90
40964;DHT22;26693;51.168;4.138;2022-10-23T06:04:02;15.30;99.90
40964;DHT22;26693;51.168;4.138;2022-10-23T06:05:03;15.40;99.90
40964;DHT22;26693;51.168;4.138;2022-10-23T06:06:04;15.40;99.90
40964;DHT22;26693;51.168;4.138;2022-10-23T06:07:05;15.40;99.90
40964;DHT22;26693;51.168;4.138;2022-10-23T06:08:05;15.50;99.90
40964;DHT22;26693;51.168;4.138;2022-10-23T06:09:06;15.40;99.90
40964;DHT22;26693;51.168;4.138;2022-10-23T06:10:07;15.50;99.90
40964;DHT22;26693;51.168;4.138;2022-10-23T06:11:09;15.50;99.90
40964;DHT22;26693;51.168;4.138;2022-10-23T06:12:10;15.60;99.90
40964;DHT22;26693;51.168;4.138;2022-10-23T06:13:10;15.60;99.90
40964;DHT22;26693;51.168;4.138;2022-10-23T06:14:11;15.60;99.90
40964;DHT22;26693;51.168;4.138;2022-10-23T06:15:11;15.50;99.90
40964;DHT22;26693;51.168;4.138;2022-10-23T06:16:14;15.50;99.90
40964;DHT22;26693;51.168;4.138;2022-10-23T06:17:15;15.50;99.90
40964;DHT22;26693;51.168;4.138;2022-10-23T06:18:16;15.60;99.90
40964;DHT22;26693;51.168;4.138;2022-10-23T06:19:16;15.50;99.90
40964;DHT22;26693;51.168;4.138;2022-10-23T06:20:16;15.50;99.90
40964;DHT22;26693;51.168;4.138;2022-10-23T06:21:17;15.50;99.90
40964;DHT22;26693;51.168;4.138;2022-10-23T06:22:18;15.50;99.90
40964;DHT22;26693;51.168;4.138;2022-10-23T06:23:18;15.50;99.90
40964;DHT22;26693;51.168;4.138;2022-10-23T06:24:19;15.50;99.90
40964;DHT22;26693;51.168;4.138;2022-10-23T06:25:19;15.50;99.90
40964;DHT22;26693;51.168;4.138;2022-10-23T06:26:20;15.60;99.90
40964;DHT22;26693;51.168;4.138;2022-10-23T06:27:21;15.60;99.90
40964;DHT22;26693;51.168;4.138;2022-10-23T06:28:22;15.70;99.90
40964;DHT22;26693;51.168;4.138;2022-10-23T06:29:22;15.70;99.90
40964;DHT22;26693;51.168;4.138;2022-10-23T06:30:23;15.70;99.90
40964;DHT22;26693;51.168;4.138;2022-10-23T06:31:24;15.70;99.90
40964;DHT22;26693;51.168;4.138;2022-10-23T06:32:30;15.60;99.90
40964;DHT22;26693;51.168;4.138;2022-10-23T06:33:31;15.70;99.90
40964;DHT22;26693;51.168;4.138;2022-10-23T06:34:32;15.60;99.90
40964;DHT22;26693;51.168;4.138;2022-10-23T06:35:32;15.60;99.90
40964;DHT22;26693;51.168;4.138;2022-10-23T06:36:33;15.60;99.90
40964;DHT22;26693;51.168;4.138;2022-10-23T06:37:33;15.60;99.90
40964;DHT22;26693;51.168;4.138;2022-10-23T06:38:34;15.60;99.90
40964;DHT22;26693;51.168;4.138;2022-10-23T06:39:36;15.60;99.90
40964;DHT22;26693;51.168;4.138;2022-10-23T06:40:39;15.70;99.90
40964;DHT22;26693;51.168;4.138;2022-10-23T06:41:40;15.70;99.90
40964;DHT22;26693;51.168;4.138;2022-10-23T06:42:43;15.70;99.90
40964;DHT22;26693;51.168;4.138;2022-10-23T06:43:46;15.70;99.90
40964;DHT22;26693;51.168;4.138;2022-10-23T06:44:47;15.60;99.90
40964;DHT22;26693;51.168;4.138;2022-10-23T06:45:48;15.40;99.90
40964;DHT22;26693;51.168;4.138;2022-10-23T06:46:48;15.40;99.90
40964;DHT22;26693;51.168;4.138;2022-10-23T06:47:49;15.30;99.90
40964;DHT22;26693;51.168;4.138;2022-10-23T06:48:50;15.30;99.90
40964;DHT22;26693;51.168;4.138;2022-10-23T06:49:51;15.30;99.90
40964;DHT22;26693;51.168;4.138;2022-10-23T06:50:51;15.30;99.90
40964;DHT22;26693;51.168;4.138;2022-10-23T06:51:52;15.40;99.90
40964;DHT22;26693;51.168;4.138;2022-10-23T06:52:53;15.30;99.90
40964;DHT22;26693;51.168;4.138;2022-10-23T06:53:54;15.40;99.90
40964;DHT22;26693;51.168;4.138;2022-10-23T06:54:54;15.40;99.90
40964;DHT22;26693;51.168;4.138;2022-10-23T06:55:59;15.30;99.90
40964;DHT22;26693;51.168;4.138;2022-10-23T06:57:00;15.30;99.90
40964;DHT22;26693;51.168;4.138;2022-10-23T06:58:01;15.30;99.90
40964;DHT22;26693;51.168;4.138;2022-10-23T06:59:02;15.30;99.90
40964;DHT22;26693;51.168;4.138;2022-10-23T07:00:03;15.30;99.90
40964;DHT22;26693;51.168;4.138;2022-10-23T07:01:06;15.30;99.90